Time;durP1;ratioP1;P1;durP2;ratioP2;P2;SDS_P1;SDS_P2;PMS_P1;PMS_P2;Temp;Humidity;BMP_temperature;BMP_pressure;BME280_temperature;BME280_humidity;BME280_pressure;Samples;Min_cycle;Max_cycle;Signal;HPM_P1;HPM_P2
2024/01/27 00:02:08;;;;;;;17.60;4.10;;;;;;;5.13;81.19;100886.45;104988;1259;61149;-58
2024/01/27 00:04:37;;;;;;;19.30;4.40;;;;;;;5.13;81.14;100888.52;105042;1254;75884;-64
2024/01/27 00:07:04;;;;;;;17.20;3.40;;;;;;;5.12;81.19;100886.05;104950;1256;66302;-65
2024/01/27 00:09:31;;;;;;;16.10;4.50;;;;;;;5.12;81.17;100889.55;104966;1259;73619;-64
2024/01/27 00:11:58;;;;;;;14.00;4.00;;;;;;;5.11;81.18;100882.02;104934;1259;139075;-64
2024/01/27 00:14:24;;;;;;;17.70;4.00;;;;;;;5.12;81.22;100883.23;105128;1256;61347;-66
2024/01/27 00:16:51;;;;;;;14.30;4.00;;;;;;;5.12;81.10;100887.27;104714;1256;138891;-64
2024/01/27 00:19:18;;;;;;;12.10;3.20;;;;;;;5.13;81.28;100886.26;104941;1256;66747;-64
2024/01/27 00:21:44;;;;;;;12.40;3.50;;;;;;;5.14;81.16;100886.16;104870;1259;73494;-65
2024/01/27 00:24:13;;;;;;;17.10;3.90;;;;;;;5.14;81.23;100884.24;104486;1256;138030;-64
2024/01/27 00:26:39;;;;;;;13.30;4.00;;;;;;;5.11;81.16;100885.31;107331;1256;61369;-63
2024/01/27 00:29:06;;;;;;;13.00;3.00;;;;;;;5.08;81.06;100881.54;104768;1259;138085;-63
2024/01/27 00:31:33;;;;;;;10.20;2.80;;;;;;;5.04;81.07;100885.33;105101;1259;65645;-64
2024/01/27 00:33:59;;;;;;;12.30;3.10;;;;;;;5.01;81.03;100885.67;104697;1257;73405;-64
2024/01/27 00:36:27;;;;;;;14.10;3.00;;;;;;;4.98;81.19;100882.58;104869;1255;138765;-65
2024/01/27 00:38:54;;;;;;;9.60;3.10;;;;;;;4.96;81.17;100883.38;105350;1259;61253;-64
2024/01/27 00:41:20;;;;;;;9.00;2.90;;;;;;;4.94;81.08;100879.06;104924;1254;138432;-66
2024/01/27 00:43:47;;;;;;;8.70;2.60;;;;;;;4.91;81.05;100881.38;105043;1254;67538;-64
2024/01/27 00:46:14;;;;;;;11.20;2.60;;;;;;;4.88;81.15;100883.81;105041;1257;73701;-65
2024/01/27 00:48:41;;;;;;;10.90;2.90;;;;;;;4.86;81.20;100882.52;104628;1256;138660;-64
2024/01/27 00:51:07;;;;;;;12.10;2.50;;;;;;;4.84;81.17;100879.48;104973;1255;61403;-64
2024/01/27 00:53:34;;;;;;;9.00;2.20;;;;;;;4.83;81.14;100875.08;104925;1254;138674;-65
2024/01/27 00:56:01;;;;;;;7.40;2.50;;;;;;;4.82;81.23;100873.43;104993;1259;67272;-64
2024/01/27 00:58:28;;;;;;;10.90;2.80;;;;;;;4.79;81.04;100872.26;105722;1259;72347;-64
2024/01/27 01:00:54;;;;;;;7.10;3.10;;;;;;;4.76;81.08;100873.34;104921;1257;138536;-65
2024/01/27 01:03:21;;;;;;;8.80;2.50;;;;;;;4.74;81.13;100871.83;105121;1258;61244;-65
2024/01/27 01:05:48;;;;;;;9.30;2.70;;;;;;;4.71;81.07;100866.31;104927;1254;137582;-64
2024/01/27 01:08:15;;;;;;;11.80;3.00;;;;;;;4.69;81.08;100868.45;105044;1259;67091;-64
2024/01/27 01:10:42;;;;;;;10.40;2.50;;;;;;;4.67;81.14;100863.83;104922;1259;138600;-63
2024/01/27 01:13:09;;;;;;;8.10;2.60;;;;;;;4.65;81.10;100863.23;104864;1258;61430;-64
2024/01/27 01:15:35;;;;;;;8.90;2.40;;;;;;;4.64;81.04;100866.12;104928;1254;61295;-64
2024/01/27 01:18:03;;;;;;;8.40;2.30;;;;;;;4.63;81.13;100866.05;104852;1254;139097;-64
2024/01/27 01:20:32;;;;;;;11.60;2.60;;;;;;;4.63;81.15;100862.40;105054;1259;65626;-64
2024/01/27 01:22:58;;;;;;;6.90;2.30;;;;;;;4.62;81.14;100860.27;106009;1255;138612;-64
2024/01/27 01:25:25;;;;;;;6.90;2.30;;;;;;;4.59;81.05;100858.41;105091;1259;61311;-65
2024/01/27 01:27:52;;;;;;;9.30;2.60;;;;;;;4.55;81.07;100857.30;105007;1254;61251;-64
2024/01/27 01:30:20;;;;;;;6.60;2.10;;;;;;;4.50;80.99;100857.95;106098;1258;138419;-63
2024/01/27 01:32:47;;;;;;;9.40;2.20;;;;;;;4.47;81.01;100854.30;105057;1254;66647;-63
2024/01/27 01:35:14;;;;;;;7.70;2.10;;;;;;;4.43;81.00;100857.04;106433;1254;138236;-62
2024/01/27 01:37:40;;;;;;;7.60;2.60;;;;;;;4.41;81.02;100864.06;104967;1259;61342;-64
2024/01/27 01:40:08;;;;;;;9.00;2.60;;;;;;;4.39;80.95;100862.07;105075;1254;61273;-64
2024/01/27 01:42:35;;;;;;;8.40;2.00;;;;;;;4.38;81.05;100860.26;106737;1254;138070;-64
2024/01/27 01:45:01;;;;;;;12.50;2.50;;;;;;;4.37;81.07;100856.73;104977;1257;65523;-64
2024/01/27 01:47:28;;;;;;;9.90;2.30;;;;;;;4.34;81.13;100861.30;104916;1254;137630;-65
2024/01/27 01:49:55;;;;;;;8.90;2.00;;;;;;;4.32;81.02;100860.14;105112;1255;61234;-65
2024/01/27 01:52:22;;;;;;;8.70;1.80;;;;;;;4.30;81.13;100859.34;104885;1260;61334;-64
2024/01/27 01:54:49;;;;;;;8.80;2.50;;;;;;;4.29;81.18;100853.90;104831;1257;139599;-64
2024/01/27 01:57:17;;;;;;;5.70;1.70;;;;;;;4.29;81.26;100855.64;105485;1259;67048;-64
2024/01/27 01:59:43;;;;;;;11.30;2.30;;;;;;;4.30;81.27;100852.56;104647;1260;139279;-64
2024/01/27 02:02:10;;;;;;;7.60;1.80;;;;;;;4.31;81.27;100849.82;105064;1257;61708;-65
2024/01/27 02:04:45;;;;;;;4.70;1.50;;;;;;;4.30;81.24;100845.77;105060;1256;61146;-66
2024/01/27 02:07:12;;;;;;;3.60;1.30;;;;;;;4.28;81.17;100846.23;109189;1254;75016;-65
2024/01/27 02:09:39;;;;;;;3.40;1.10;;;;;;;4.26;81.03;100849.59;109042;1254;66854;-64
2024/01/27 02:12:06;;;;;;;4.90;1.60;;;;;;;4.25;80.98;100850.21;104912;1254;138124;-64
2024/01/27 02:14:32;;;;;;;2.80;1.00;;;;;;;4.22;81.03;100847.63;105085;1254;61335;-64
2024/01/27 02:16:59;;;;;;;4.30;1.10;;;;;;;4.18;80.90;100845.70;104994;1258;139271;-63
2024/01/27 02:19:26;;;;;;;2.60;0.90;;;;;;;4.13;80.94;100846.65;104807;1254;74895;-64
2024/01/27 02:21:53;;;;;;;4.30;1.20;;;;;;;4.11;80.88;100848.95;105058;1257;66791;-64
2024/01/27 02:24:19;;;;;;;2.60;1.10;;;;;;;4.08;80.97;100846.76;104926;1255;139320;-64
2024/01/27 02:26:46;;;;;;;5.60;1.40;;;;;;;4.04;80.93;100841.30;105054;1254;61391;-64
2024/01/27 02:29:13;;;;;;;3.50;1.20;;;;;;;4.01;80.98;100838.57;105089;1256;137845;-64
2024/01/27 02:31:39;;;;;;;3.10;0.90;;;;;;;4.01;81.09;100835.76;105187;1258;74124;-64
2024/01/27 02:34:06;;;;;;;4.20;0.90;;;;;;;4.00;81.10;100831.56;104947;1255;63979;-64
2024/01/27 02:36:32;;;;;;;3.90;1.20;;;;;;;3.97;81.15;100831.06;104796;1259;138436;-64
2024/01/27 02:38:59;;;;;;;2.60;1.10;;;;;;;3.97;81.15;100832.08;105040;1256;61252;-64
2024/01/27 02:41:26;;;;;;;3.50;1.00;;;;;;;3.93;81.07;100829.64;104834;1259;138822;-64
2024/01/27 02:43:53;;;;;;;3.70;1.30;;;;;;;3.92;81.10;100832.50;105053;1256;74129;-64
2024/01/27 02:46:20;;;;;;;0.80;0.60;;;;;;;3.90;81.14;100827.02;104976;1256;64318;-64
2024/01/27 02:48:46;;;;;;;1.50;0.90;;;;;;;3.87;81.18;100827.06;104657;1257;138438;-65
2024/01/27 02:51:13;;;;;;;2.30;0.80;;;;;;;3.86;81.25;100825.79;104961;1259;61340;-65
2024/01/27 02:53:40;;;;;;;2.90;0.80;;;;;;;3.88;81.35;100826.05;104599;1257;138227;-65
2024/01/27 02:56:09;;;;;;;2.00;0.80;;;;;;;3.88;81.47;100825.21;104958;1259;72836;-64
2024/01/27 02:58:36;;;;;;;1.80;1.00;;;;;;;3.88;81.33;100825.01;104887;1256;65666;-64
2024/01/27 03:01:03;;;;;;;1.20;0.80;;;;;;;3.85;81.38;100825.73;104569;1260;138773;-65
2024/01/27 03:03:30;;;;;;;1.20;0.80;;;;;;;3.86;81.23;100828.71;104955;1258;61361;-65
2024/01/27 03:05:56;;;;;;;2.20;0.90;;;;;;;3.83;81.40;100829.27;104852;1256;138298;-66
2024/01/27 03:08:23;;;;;;;2.80;0.90;;;;;;;3.82;81.33;100829.75;104904;1256;75176;-64
2024/01/27 03:10:50;;;;;;;0.90;0.60;;;;;;;3.84;81.35;100832.27;104763;1259;138519;-63
2024/01/27 03:13:18;;;;;;;2.50;1.00;;;;;;;3.85;81.53;100834.93;104835;1259;73910;-65
2024/01/27 03:15:45;;;;;;;3.10;1.10;;;;;;;3.85;81.43;100836.86;104833;1257;61294;-65
2024/01/27 03:18:12;;;;;;;2.30;0.90;;;;;;;3.84;81.42;100846.00;104788;1256;137976;-65
2024/01/27 03:20:39;;;;;;;1.20;0.80;;;;;;;3.83;81.32;100849.20;104866;1255;75844;-66
2024/01/27 03:23:05;;;;;;;0.90;0.60;;;;;;;3.82;81.45;100850.05;104873;1257;138190;-64
2024/01/27 03:25:32;;;;;;;2.10;0.90;;;;;;;3.81;81.53;100851.54;104837;1259;73113;-65
2024/01/27 03:27:58;;;;;;;2.50;0.70;;;;;;;3.81;81.56;100851.39;104948;1256;62078;-64
2024/01/27 03:30:25;;;;;;;2.30;0.90;;;;;;;3.81;81.52;100859.85;104837;1255;138035;-64
2024/01/27 03:32:52;;;;;;;2.80;0.90;;;;;;;3.80;81.58;100864.20;105034;1255;75926;-64
2024/01/27 03:35:18;;;;;;;2.50;1.10;;;;;;;3.82;81.64;100865.82;104863;1259;138330;-65
2024/01/27 03:37:45;;;;;;;3.10;1.20;;;;;;;3.82;81.55;100866.70;104936;1259;72954;-64
2024/01/27 03:40:12;;;;;;;2.60;1.20;;;;;;;3.85;81.73;100874.00;104997;1257;61375;-64
2024/01/27 03:42:39;;;;;;;3.20;1.10;;;;;;;3.89;81.89;100874.02;106495;1258;138317;-64
2024/01/27 03:45:06;;;;;;;3.50;1.20;;;;;;;3.92;81.90;100876.23;105103;1256;73910;-64
2024/01/27 03:47:33;;;;;;;3.40;1.10;;;;;;;3.95;81.71;100878.69;109148;1255;138995;-63
2024/01/27 03:49:59;;;;;;;2.00;1.00;;;;;;;3.97;81.77;100877.73;105583;1254;71679;-63
2024/01/27 03:52:26;;;;;;;2.50;1.10;;;;;;;3.98;81.75;100875.38;104818;1260;61332;-63
2024/01/27 03:54:53;;;;;;;3.80;1.40;;;;;;;3.99;81.76;100880.66;104789;1259;138345;-64
2024/01/27 03:57:19;;;;;;;2.90;1.10;;;;;;;4.00;81.63;100876.00;104661;1257;75291;-64
2024/01/27 03:59:46;;;;;;;6.00;1.50;;;;;;;4.00;81.62;100883.98;104759;1256;138251;-64
2024/01/27 04:02:13;;;;;;;4.00;1.40;;;;;;;4.01;81.65;100881.79;105034;1259;72193;-66
2024/01/27 04:04:40;;;;;;;2.90;1.10;;;;;;;4.03;81.69;100887.95;104953;1257;61260;-65
2024/01/27 04:07:06;;;;;;;2.50;1.10;;;;;;;4.03;81.70;100888.31;104812;1259;137448;-65
2024/01/27 04:09:33;;;;;;;3.50;1.40;;;;;;;4.04;81.76;100891.84;104985;1257;74303;-65
2024/01/27 04:12:00;;;;;;;1.80;0.90;;;;;;;4.03;81.67;100897.51;104888;1257;138087;-66
2024/01/27 04:14:27;;;;;;;3.80;1.40;;;;;;;4.02;81.74;100902.16;105074;1259;73846;-65
2024/01/27 04:16:53;;;;;;;3.40;1.20;;;;;;;4.02;81.71;100907.54;104911;1257;138778;-63
2024/01/27 04:19:20;;;;;;;5.00;1.40;;;;;;;4.00;81.63;100903.09;105132;1256;61247;-65
2024/01/27 04:21:47;;;;;;;1.20;0.60;;;;;;;3.99;81.68;100904.06;105076;1259;75461;-65
2024/01/27 04:24:13;;;;;;;4.00;0.90;;;;;;;3.98;81.64;100910.08;104961;1254;138104;-65
2024/01/27 04:26:40;;;;;;;2.00;1.10;;;;;;;3.96;81.63;100910.66;104930;1255;71910;-65
2024/01/27 04:29:07;;;;;;;3.50;1.10;;;;;;;3.95;81.63;100917.08;104797;1257;139278;-65
2024/01/27 04:31:33;;;;;;;2.60;0.90;;;;;;;3.93;81.72;100920.41;105030;1257;61376;-65
2024/01/27 04:34:00;;;;;;;2.00;1.10;;;;;;;3.93;81.78;100917.12;105050;1255;74769;-65
2024/01/27 04:36:28;;;;;;;1.70;0.90;;;;;;;3.92;81.75;100923.16;104763;1259;138304;-65
2024/01/27 04:38:55;;;;;;;4.10;1.30;;;;;;;3.93;81.79;100929.80;104868;1257;73928;-65
2024/01/27 04:41:22;;;;;;;1.60;0.90;;;;;;;3.92;81.89;100933.38;108880;1256;138703;-64
2024/01/27 04:43:48;;;;;;;3.20;1.10;;;;;;;3.93;81.85;100940.91;109101;1255;60300;-64
2024/01/27 04:46:15;;;;;;;1.90;0.90;;;;;;;3.91;81.79;100943.92;109077;1256;73148;-64
2024/01/27 04:48:42;;;;;;;3.10;0.70;;;;;;;3.88;81.81;100949.17;108934;1256;138221;-65
2024/01/27 04:51:09;;;;;;;2.60;0.90;;;;;;;3.88;82.01;100955.08;109086;1255;73849;-65
2024/01/27 04:53:35;;;;;;;1.70;0.70;;;;;;;3.87;81.84;100961.42;108996;1256;138535;-65
2024/01/27 04:56:02;;;;;;;4.00;1.10;;;;;;;3.87;82.03;100968.02;106746;1259;61209;-65
2024/01/27 04:58:29;;;;;;;2.10;0.70;;;;;;;3.86;81.92;100973.88;104803;1256;75207;-66
2024/01/27 05:00:56;;;;;;;2.00;0.60;;;;;;;3.85;81.97;100979.90;104666;1259;138356;-65
2024/01/27 05:03:22;;;;;;;2.50;0.90;;;;;;;3.85;82.07;100983.52;104921;1257;72816;-64
2024/01/27 05:05:49;;;;;;;2.00;0.70;;;;;;;3.83;81.95;100988.77;104710;1262;138484;-65
2024/01/27 05:08:16;;;;;;;1.60;0.70;;;;;;;3.78;81.98;100991.99;104932;1259;61249;-66
2024/01/27 05:10:42;;;;;;;2.80;0.90;;;;;;;3.77;82.11;100997.30;104989;1254;75578;-65
2024/01/27 05:13:09;;;;;;;1.60;0.90;;;;;;;3.77;82.04;100999.58;104982;1259;68641;-65
2024/01/27 05:15:36;;;;;;;0.80;0.60;;;;;;;3.75;82.18;101002.09;104823;1260;72238;-65
2024/01/27 05:18:03;;;;;;;1.10;0.80;;;;;;;3.74;82.03;101009.13;105011;1255;138203;-64
2024/01/27 05:20:30;;;;;;;0.80;0.80;;;;;;;3.70;82.14;101015.51;105140;1255;61316;-64
2024/01/27 05:22:56;;;;;;;1.20;0.60;;;;;;;3.70;82.17;101022.44;104865;1257;138440;-64
2024/01/27 05:25:23;;;;;;;1.00;0.60;;;;;;;3.69;82.08;101029.48;104870;1257;66486;-64
2024/01/27 05:27:50;;;;;;;1.80;0.90;;;;;;;3.64;81.93;101035.31;105034;1259;71853;-65
2024/01/27 05:30:17;;;;;;;3.60;0.90;;;;;;;3.59;82.14;101040.91;104802;1257;139110;-65
2024/01/27 05:32:44;;;;;;;3.00;1.50;;;;;;;3.55;82.19;101043.63;109189;1256;60051;-65
2024/01/27 05:35:10;;;;;;;1.10;1.00;;;;;;;3.53;82.28;101046.98;105304;1259;138438;-66
2024/01/27 05:37:39;;;;;;;1.70;1.00;;;;;;;3.55;82.42;101048.11;105012;1259;66885;-66
2024/01/27 05:40:07;;;;;;;1.10;0.90;;;;;;;3.57;82.50;101050.18;104865;1261;73721;-66
2024/01/27 05:42:34;;;;;;;1.30;0.60;;;;;;;3.58;82.59;101055.06;104840;1257;138220;-65
2024/01/27 05:45:00;;;;;;;0.80;0.60;;;;;;;3.58;82.55;101067.93;105105;1255;61462;-65
2024/01/27 05:47:27;;;;;;;0.90;0.70;;;;;;;3.56;82.56;101073.36;104941;1256;138366;-64
2024/01/27 05:49:54;;;;;;;0.90;0.80;;;;;;;3.54;82.71;101080.19;105052;1258;65851;-65
2024/01/27 05:52:20;;;;;;;1.40;0.80;;;;;;;3.49;82.41;101086.67;104915;1257;72627;-65
2024/01/27 05:54:47;;;;;;;0.70;0.70;;;;;;;3.43;82.48;101090.80;104876;1259;138549;-65
2024/01/27 05:57:14;;;;;;;2.50;0.90;;;;;;;3.37;82.63;101098.23;104999;1254;61160;-65
2024/01/27 05:59:40;;;;;;;2.20;0.90;;;;;;;3.33;82.82;101107.41;104906;1256;138169;-64
2024/01/27 06:02:07;;;;;;;1.80;0.90;;;;;;;3.31;82.89;101111.76;105015;1259;67923;-65
2024/01/27 06:04:34;;;;;;;1.60;1.20;;;;;;;3.27;82.90;101118.98;105235;1257;73326;-66
2024/01/27 06:07:01;;;;;;;1.40;0.60;;;;;;;3.24;82.93;101125.06;105186;1259;138761;-65
2024/01/27 06:09:27;;;;;;;1.60;0.90;;;;;;;3.20;82.99;101135.95;105072;1259;61276;-65
2024/01/27 06:11:54;;;;;;;1.10;0.80;;;;;;;3.17;82.84;101146.33;105032;1257;138257;-65
2024/01/27 06:14:21;;;;;;;0.70;0.70;;;;;;;3.13;82.98;101157.50;105001;1259;67180;-66
2024/01/27 06:16:48;;;;;;;1.00;0.90;;;;;;;3.09;83.02;101168.73;104751;1259;138326;-65
2024/01/27 06:19:14;;;;;;;1.20;1.00;;;;;;;3.06;83.16;101172.52;107917;1256;61360;-67
2024/01/27 06:21:41;;;;;;;1.00;0.80;;;;;;;3.05;83.17;101182.33;105046;1259;61153;-67
2024/01/27 06:24:08;;;;;;;1.40;1.00;;;;;;;3.03;83.19;101190.90;104856;1259;138725;-66
2024/01/27 06:26:34;;;;;;;1.10;1.00;;;;;;;3.02;83.29;101200.16;105141;1257;64809;-66
2024/01/27 06:29:02;;;;;;;1.30;1.00;;;;;;;3.02;83.45;101206.92;104920;1257;138416;-66
2024/01/27 06:31:29;;;;;;;1.50;0.90;;;;;;;2.98;83.38;101214.69;105084;1259;61248;-65
2024/01/27 06:33:56;;;;;;;1.40;1.10;;;;;;;2.98;83.46;101226.28;105121;1256;61680;-65
2024/01/27 06:36:24;;;;;;;2.00;1.00;;;;;;;3.00;83.57;101234.39;104994;1259;138753;-58
2024/01/27 06:38:51;;;;;;;0.90;0.80;;;;;;;3.02;83.57;101242.63;105009;1257;67959;-58
2024/01/27 06:41:18;;;;;;;1.70;1.30;;;;;;;3.02;83.52;101250.82;104965;1254;138511;-66
2024/01/27 06:43:45;;;;;;;1.40;1.00;;;;;;;3.03;83.54;101256.59;104887;1255;61346;-65
2024/01/27 06:46:11;;;;;;;1.80;0.90;;;;;;;3.04;83.48;101259.80;104943;1257;61682;-58
2024/01/27 06:48:38;;;;;;;2.00;1.20;;;;;;;3.07;83.54;101266.56;104837;1257;138130;-66
2024/01/27 06:51:05;;;;;;;1.60;1.20;;;;;;;3.07;83.41;101273.33;105059;1259;67531;-58
2024/01/27 06:53:32;;;;;;;1.10;1.00;;;;;;;3.06;83.41;101280.03;104897;1254;138116;-58
2024/01/27 06:55:58;;;;;;;1.70;1.30;;;;;;;3.07;83.53;101284.07;105003;1257;61375;-58
2024/01/27 06:58:25;;;;;;;2.80;1.50;;;;;;;3.07;83.45;101286.48;104965;1259;61226;-59
2024/01/27 07:00:52;;;;;;;2.10;1.20;;;;;;;3.06;83.57;101299.80;104897;1257;138960;-64
2024/01/27 07:03:19;;;;;;;2.90;1.10;;;;;;;3.05;83.37;101306.34;105034;1259;67272;-65
2024/01/27 07:05:47;;;;;;;1.20;1.00;;;;;;;3.07;83.64;101313.23;107202;1257;138588;-58
2024/01/27 07:08:13;;;;;;;2.10;1.30;;;;;;;3.09;83.65;101319.92;104952;1259;61246;-59
2024/01/27 07:10:40;;;;;;;2.10;1.20;;;;;;;3.12;83.70;101330.67;105025;1260;61260;-59
2024/01/27 07:13:07;;;;;;;2.10;1.50;;;;;;;3.11;83.65;101332.38;104930;1257;138150;-67
2024/01/27 07:15:33;;;;;;;7.10;4.40;;;;;;;3.12;83.82;101343.52;105020;1257;65303;-67
2024/01/27 07:18:00;;;;;;;3.00;1.80;;;;;;;3.12;83.91;101343.86;104613;1257;138346;-67
2024/01/27 07:20:28;;;;;;;5.00;1.30;;;;;;;3.10;84.00;101353.13;104941;1257;61432;-66
2024/01/27 07:22:55;;;;;;;2.00;1.10;;;;;;;3.08;84.12;101358.21;106986;1257;138375;-58
2024/01/27 07:25:22;;;;;;;2.40;1.30;;;;;;;3.10;84.26;101368.20;104872;1258;76936;-65
2024/01/27 07:27:49;;;;;;;2.10;1.20;;;;;;;3.09;84.34;101375.77;105078;1259;66116;-58
2024/01/27 07:30:15;;;;;;;2.90;1.40;;;;;;;3.08;84.47;101381.98;104700;1260;138525;-58
2024/01/27 07:32:44;;;;;;;2.10;1.50;;;;;;;3.10;84.74;101389.33;105105;1259;61365;-58
2024/01/27 07:35:10;;;;;;;1.80;1.40;;;;;;;3.10;84.74;101401.86;104940;1257;138639;-59
2024/01/27 07:37:37;;;;;;;1.70;1.10;;;;;;;3.09;84.77;101404.56;105023;1260;75718;-65
2024/01/27 07:40:05;;;;;;;2.40;1.20;;;;;;;3.08;84.99;101408.49;104997;1257;67331;-65
2024/01/27 07:42:32;;;;;;;1.60;1.30;;;;;;;3.08;85.06;101413.19;108916;1255;138405;-67
2024/01/27 07:44:58;;;;;;;2.60;1.30;;;;;;;3.09;85.07;101423.81;107288;1255;59800;-66
2024/01/27 07:47:25;;;;;;;1.50;1.10;;;;;;;3.10;85.18;101430.30;105012;1257;138938;-65
2024/01/27 07:49:52;;;;;;;1.50;1.10;;;;;;;3.12;85.31;101435.59;104956;1254;75297;-64
2024/01/27 07:52:19;;;;;;;2.20;1.90;;;;;;;3.15;85.37;101440.95;104904;1259;66231;-65
2024/01/27 07:54:46;;;;;;;1.70;1.30;;;;;;;3.19;85.39;101447.83;104788;1259;139188;-59
2024/01/27 07:57:13;;;;;;;1.20;1.00;;;;;;;3.21;85.12;101456.84;104774;1254;61389;-65
2024/01/27 07:59:39;;;;;;;1.90;0.90;;;;;;;3.24;85.08;101461.02;104888;1256;138457;-64
2024/01/27 08:02:06;;;;;;;1.20;0.90;;;;;;;3.31;85.48;101466.67;104968;1256;75324;-65
2024/01/27 08:04:34;;;;;;;2.80;1.00;;;;;;;3.42;85.27;101472.58;105018;1259;66398;-59
2024/01/27 08:07:05;;;;;;;1.30;1.10;;;;;;;3.46;84.91;101471.33;104839;1259;138204;-58
2024/01/27 08:09:32;;;;;;;1.50;1.30;;;;;;;3.46;84.83;101481.18;108191;1257;61345;-65
2024/01/27 08:11:59;;;;;;;1.10;1.00;;;;;;;3.44;84.86;101488.53;104873;1259;138340;-64
2024/01/27 08:14:26;;;;;;;1.70;1.00;;;;;;;3.43;84.69;101494.85;106051;1257;75017;-64
2024/01/27 08:16:53;;;;;;;1.90;1.20;;;;;;;3.44;84.74;101505.15;104947;1259;139329;-65
2024/01/27 08:19:20;;;;;;;1.20;1.10;;;;;;;3.43;84.76;101507.90;104866;1255;73939;-58
2024/01/27 08:21:47;;;;;;;1.40;1.20;;;;;;;3.43;84.76;101520.58;104876;1259;59926;-65
2024/01/27 08:24:14;;;;;;;1.60;1.20;;;;;;;3.42;84.31;101526.41;104704;1255;138239;-65
2024/01/27 08:26:42;;;;;;;1.70;1.30;;;;;;;3.40;84.43;101537.52;105048;1257;75286;-60
2024/01/27 08:29:09;;;;;;;2.00;1.50;;;;;;;3.41;84.19;101542.81;104797;1260;138424;-65
2024/01/27 08:31:37;;;;;;;2.80;1.50;;;;;;;3.43;84.13;101553.02;104944;1259;72680;-59
2024/01/27 08:34:05;;;;;;;1.60;1.30;;;;;;;3.43;84.01;101564.59;109045;1256;58981;-59
2024/01/27 08:36:32;;;;;;;1.60;1.10;;;;;;;3.38;84.10;101567.40;108902;1254;138381;-60
2024/01/27 08:38:58;;;;;;;2.20;1.40;;;;;;;3.34;84.11;101574.75;109084;1254;74625;-60
2024/01/27 08:41:26;;;;;;;3.10;1.70;;;;;;;3.28;84.06;101579.23;109012;1256;138974;-58
2024/01/27 08:43:52;;;;;;;1.60;1.30;;;;;;;3.23;84.21;101599.67;106269;1259;71539;-64
2024/01/27 08:46:21;;;;;;;2.20;1.60;;;;;;;3.18;84.34;101606.30;105000;1259;61221;-63
2024/01/27 08:48:48;;;;;;;2.40;1.60;;;;;;;3.12;84.53;101614.22;104938;1259;138712;-64
2024/01/27 08:51:16;;;;;;;2.40;1.70;;;;;;;3.10;84.87;101620.34;105010;1257;72884;-63
2024/01/27 08:53:48;;;;;;;2.20;1.50;;;;;;;3.10;84.99;101624.84;104961;1266;138407;-63
2024/01/27 08:56:17;;;;;;;2.70;1.50;;;;;;;3.16;85.29;101628.39;104952;1254;72486;-64
2024/01/27 08:58:44;;;;;;;2.90;1.60;;;;;;;3.24;85.44;101629.77;108237;1257;61902;-64
2024/01/27 09:01:14;;;;;;;2.90;1.70;;;;;;;3.28;85.24;101638.92;104959;1255;61350;-64
2024/01/27 09:03:41;;;;;;;3.40;1.70;;;;;;;3.26;84.97;101644.69;106285;1259;74810;-66
2024/01/27 09:06:07;;;;;;;3.30;1.70;;;;;;;3.18;84.67;101656.75;104924;1259;139571;-64
2024/01/27 09:08:34;;;;;;;2.90;1.70;;;;;;;3.06;84.72;101656.48;104950;1260;72604;-68
2024/01/27 09:11:04;;;;;;;2.70;1.80;;;;;;;3.00;84.85;101663.30;104563;1262;139805;-63
2024/01/27 09:13:30;;;;;;;2.40;1.70;;;;;;;2.96;84.96;101667.87;104990;1260;61256;-59
2024/01/27 09:15:58;;;;;;;3.90;2.00;;;;;;;2.90;84.81;101673.02;104828;1257;75084;-59
2024/01/27 09:18:26;;;;;;;2.40;1.60;;;;;;;2.85;85.04;101674.13;109012;1259;138832;-60
2024/01/27 09:20:53;;;;;;;3.50;2.20;;;;;;;2.86;85.23;101675.88;108978;1257;72245;-59
2024/01/27 09:23:20;;;;;;;2.60;2.00;;;;;;;2.89;85.33;101684.64;108907;1256;174075;-59
2024/01/27 09:25:46;;;;;;;3.10;2.10;;;;;;;2.94;85.47;101689.98;109102;1254;60341;-60
2024/01/27 09:28:14;;;;;;;2.70;1.90;;;;;;;2.99;85.44;101702.44;109168;1259;74482;-59
2024/01/27 09:30:40;;;;;;;2.90;1.90;;;;;;;3.01;85.49;101697.05;108386;1259;138739;-59
2024/01/27 09:33:07;;;;;;;2.90;1.80;;;;;;;3.03;85.31;101704.46;104938;1255;73173;-59
2024/01/27 09:35:34;;;;;;;2.80;1.80;;;;;;;3.04;85.21;101705.05;104777;1260;138130;-60
2024/01/27 09:38:00;;;;;;;2.80;1.80;;;;;;;3.10;85.51;101706.35;104745;1261;61379;-59
2024/01/27 09:40:27;;;;;;;2.50;1.70;;;;;;;3.11;85.17;101718.92;104870;1255;74962;-59
2024/01/27 09:42:54;;;;;;;2.60;2.00;;;;;;;3.11;85.08;101729.14;104581;1257;138631;-60
2024/01/27 09:45:22;;;;;;;3.00;1.80;;;;;;;3.11;84.86;101729.98;104670;1263;73090;-60
2024/01/27 09:47:49;;;;;;;4.20;2.00;;;;;;;3.12;84.99;101726.23;104691;1257;138082;-58
2024/01/27 09:50:16;;;;;;;3.20;1.90;;;;;;;3.16;85.03;101728.08;105071;1260;61139;-59
2024/01/27 09:52:42;;;;;;;5.90;2.50;;;;;;;3.22;84.98;101743.08;104711;1260;74876;-59
2024/01/27 09:55:09;;;;;;;3.00;2.00;;;;;;;3.26;84.90;101738.87;104682;1263;137917;-59
2024/01/27 09:57:37;;;;;;;5.30;2.30;;;;;;;3.29;84.84;101747.59;104750;1260;73713;-59
2024/01/27 10:00:05;;;;;;;4.40;2.30;;;;;;;3.34;84.66;101744.63;104863;1263;138875;-60
2024/01/27 10:02:32;;;;;;;6.20;1.80;;;;;;;3.39;84.47;101749.64;109164;1254;60291;-60
2024/01/27 10:04:59;;;;;;;5.20;2.40;;;;;;;3.42;84.30;101747.45;108783;1260;139132;-60
2024/01/27 10:07:25;;;;;;;4.00;2.20;;;;;;;3.50;84.36;101754.54;109051;1254;64371;-59
2024/01/27 10:09:52;;;;;;;5.10;1.80;;;;;;;3.57;84.13;101763.90;108896;1255;72070;-63
2024/01/27 10:12:19;;;;;;;5.40;2.20;;;;;;;3.60;83.89;101768.98;109105;1258;138183;-60
2024/01/27 10:14:48;;;;;;;6.50;2.30;;;;;;;3.65;83.69;101771.45;108868;1256;61601;-60
2024/01/27 10:17:26;;;;;;;6.20;2.10;;;;;;;3.70;83.25;101776.97;108902;1255;139085;-59
2024/01/27 10:20:07;;;;;;;4.60;1.80;;;;;;;3.69;82.76;101796.72;105525;1255;65319;-59
2024/01/27 10:22:39;;;;;;;6.00;1.90;;;;;;;3.65;82.57;101796.25;109183;1254;70634;-61
2024/01/27 10:25:09;;;;;;;7.20;2.50;;;;;;;3.61;82.18;101803.05;108752;1257;138027;-60
2024/01/27 10:27:36;;;;;;;7.20;1.80;;;;;;;3.62;82.26;101814.77;109199;1254;61070;-59
2024/01/27 10:30:03;;;;;;;7.60;2.30;;;;;;;3.66;82.16;101816.44;106388;1255;139007;-59
2024/01/27 10:32:30;;;;;;;6.30;2.20;;;;;;;3.70;82.12;101815.88;109159;1255;67527;-57
2024/01/27 10:35:08;;;;;;;4.30;2.60;;;;;;;3.83;82.23;101822.00;108907;1254;138318;-58
2024/01/27 10:37:35;;;;;;;6.10;2.60;;;;;;;3.97;82.22;101822.73;105983;1258;61336;-59
2024/01/27 10:40:03;;;;;;;7.00;3.30;;;;;;;4.04;81.90;101840.61;109095;1254;59335;-59
2024/01/27 10:42:30;;;;;;;6.20;2.80;;;;;;;4.14;81.96;101842.33;108977;1254;138414;-59
2024/01/27 10:45:00;;;;;;;8.60;3.30;;;;;;;4.25;81.62;101839.09;108285;1260;66232;-59
2024/01/27 10:47:28;;;;;;;8.70;3.20;;;;;;;4.27;81.39;101852.08;104880;1257;138631;-59
2024/01/27 10:49:56;;;;;;;7.20;2.60;;;;;;;4.27;81.01;101853.48;105063;1254;61903;-59
2024/01/27 10:52:32;;;;;;;5.40;2.40;;;;;;;4.24;81.03;101858.27;109103;1254;59485;-60
2024/01/27 10:55:03;;;;;;;4.60;2.60;;;;;;;4.22;80.86;101862.30;109000;1254;138772;-59
2024/01/27 10:57:30;;;;;;;7.80;2.30;;;;;;;4.16;80.58;101870.95;109240;1256;67647;-59
2024/01/27 10:59:57;;;;;;;6.30;2.50;;;;;;;4.18;80.81;101870.19;107598;1257;138310;-60
2024/01/27 11:02:25;;;;;;;7.70;2.40;;;;;;;4.27;80.68;101879.54;108969;1255;59118;-58
2024/01/27 11:04:54;;;;;;;6.40;2.00;;;;;;;4.31;80.06;101893.36;108861;1254;138828;-59
2024/01/27 11:07:24;;;;;;;5.40;2.50;;;;;;;4.33;79.92;101884.77;109161;1254;74632;-59
2024/01/27 11:09:53;;;;;;;7.10;2.50;;;;;;;4.43;80.28;101886.48;105856;1254;67295;-59
2024/01/27 11:12:21;;;;;;;5.20;2.20;;;;;;;4.51;80.03;101895.90;104954;1259;137905;-60
2024/01/27 11:14:48;;;;;;;7.90;3.10;;;;;;;4.56;80.17;101901.60;105039;1260;61287;-59
2024/01/27 11:17:16;;;;;;;7.50;2.50;;;;;;;4.57;79.70;101900.70;106240;1260;138494;-59
2024/01/27 11:19:44;;;;;;;7.80;2.50;;;;;;;4.51;79.41;101904.23;109192;1254;72713;-59
2024/01/27 11:22:37;;;;;;;4.90;2.30;;;;;;;4.45;79.57;101915.02;109018;1254;65680;-59